virtualACA

Welcome To Vancouver International Airport CYVR

Hub Roster

Pilot Domicile Rank
Brian Kozushka - ACA1102CanadaChief Pilot
Jean-Michel Lazare - ACA2310FranceChief Pilot
Celso Silva - ACA3173BrazilSenior Captain
Robert Zolliecoffer - ACA3242United StatesNew Hire
Julien Chabbey - ACA3244SwitzerlandNew Hire
Doug Fisher - ACA3285CanadaChief Pilot
Josh Welte - ACA3286United StatesNew Hire

Current Vatsim Weather


CYVR 190200Z 08010KT 10SM FEW019 SCT037 OVC055 05/04 A3018 RMK SC1SC2SC5 SLP220
Vancouver International Airport